Time;durP1;ratioP1;P1;durP2;ratioP2;P2;SDS_P1;SDS_P2;PMS_P1;PMS_P2;Temp;Humidity;BMP_temperature;BMP_pressure;BME280_temperature;BME280_humidity;BME280_pressure;Samples;Min_cycle;Max_cycle;Signal;HPM_P1;HPM_P2
2023/12/21 00:02:14;;;;;;;2.77;1.90;;;;;;;6.30;100.00;98925.25;7245410;40;20262;31
2023/12/21 00:12:40;;;;;;;2.70;1.60;;;;;;;6.23;100.00;98938.34;7205312;40;20276;31
2023/12/21 00:18:15;;;;;;;2.30;1.65;;;;;;;6.22;100.00;98938.50;7192842;40;20259;31
2023/12/21 00:28:40;;;;;;;2.07;1.60;;;;;;;6.23;100.00;98932.19;7216895;40;20369;31
2023/12/21 00:34:16;;;;;;;2.30;1.50;;;;;;;6.20;100.00;98911.87;7296878;39;20284;31
2023/12/21 00:39:37;;;;;;;3.10;1.70;;;;;;;6.25;100.00;98901.59;7271311;39;20252;31
2023/12/21 00:44:57;;;;;;;4.10;1.80;;;;;;;6.26;100.00;98899.75;7277956;40;20319;31
2023/12/21 00:50:33;;;;;;;5.90;2.15;;;;;;;6.23;100.00;98882.16;7264988;40;20247;31
2023/12/21 00:55:54;;;;;;;2.50;1.70;;;;;;;6.25;100.00;98850.75;7197103;40;20237;31
2023/12/21 01:01:29;;;;;;;2.40;1.80;;;;;;;6.23;100.00;98844.69;7217735;40;20297;31
2023/12/21 01:07:05;;;;;;;5.00;2.67;;;;;;;6.21;100.00;98830.62;7200973;40;20284;31
2023/12/21 01:12:40;;;;;;;2.15;1.95;;;;;;;6.19;100.00;98813.03;7177425;40;20309;31
2023/12/21 01:18:00;;;;;;;4.10;2.40;;;;;;;6.17;100.00;98823.91;7124187;40;20249;31
2023/12/21 01:23:36;;;;;;;1.97;1.60;;;;;;;6.17;100.00;98821.22;7159762;40;20305;31
2023/12/21 01:29:11;;;;;;;3.20;1.65;;;;;;;6.19;100.00;98808.50;7156370;40;20262;31
2023/12/21 01:34:47;;;;;;;2.15;1.50;;;;;;;6.19;100.00;98805.84;7209422;40;20242;31
2023/12/21 01:40:25;;;;;;;2.35;1.50;;;;;;;6.18;100.00;98790.81;7187668;40;20247;31
2023/12/21 01:45:45;;;;;;;2.07;1.77;;;;;;;6.19;100.00;98805.84;7217583;40;20253;31
2023/12/21 01:51:20;;;;;;;2.47;1.67;;;;;;;6.19;100.00;98791.63;7227038;40;20246;31
2023/12/21 01:56:56;;;;;;;2.30;1.77;;;;;;;6.19;100.00;98772.88;7186824;40;20344;31
2023/12/21 02:02:16;;;;;;;2.30;1.73;;;;;;;6.19;100.00;98767.53;7149358;40;20259;31
2023/12/21 02:07:51;;;;;;;2.15;1.55;;;;;;;6.19;100.00;98752.31;7134898;40;20417;31
2023/12/21 02:13:25;;;;;;;1.50;1.30;;;;;;;6.22;100.00;98762.75;7179726;40;20239;31
2023/12/21 02:19:01;;;;;;;2.50;1.50;;;;;;;6.27;100.00;98748.91;7162357;40;20228;31
2023/12/21 02:24:37;;;;;;;2.50;1.55;;;;;;;6.27;100.00;98728.31;7147243;40;20343;31
2023/12/21 02:29:58;;;;;;;3.70;1.70;;;;;;;6.30;100.00;98724.53;7145624;40;20401;31
2023/12/21 02:35:18;;;;;;;2.90;1.80;;;;;;;6.29;100.00;98712.13;7190335;40;20266;31
2023/12/21 02:40:54;;;;;;;1.90;1.60;;;;;;;6.28;100.00;98689.87;7230452;40;20311;31
2023/12/21 02:46:29;;;;;;;2.95;1.40;;;;;;;6.31;100.00;98660.16;7198265;40;20269;31
2023/12/21 02:52:05;;;;;;;0.50;0.50;;;;;;;6.45;100.00;98652.56;7217088;40;20424;31
2023/12/21 02:57:43;;;;;;;1.13;0.70;;;;;;;6.65;100.00;98683.53;7216355;40;20231;31
2023/12/21 03:03:18;;;;;;;0.20;0.20;;;;;;;6.82;100.00;98660.37;7159493;40;20267;31
2023/12/21 03:13:55;;;;;;;0.30;0.30;;;;;;;6.93;100.00;98634.22;7225163;40;20294;31
2023/12/21 03:19:31;;;;;;;0.20;0.20;;;;;;;6.97;100.00;98621.34;7226208;40;20280;31
2023/12/21 03:25:06;;;;;;;0.40;0.23;;;;;;;7.02;100.00;98601.09;7177818;40;20333;31
2023/12/21 03:30:43;;;;;;;0.20;0.20;;;;;;;7.06;100.00;98628.44;7209831;40;20237;31
2023/12/21 03:36:18;;;;;;;0.20;0.20;;;;;;;7.10;100.00;98595.78;7168601;40;20345;31
2023/12/21 03:41:38;;;;;;;0.30;0.30;;;;;;;7.16;100.00;98597.81;7122132;41;20311;31
2023/12/21 03:47:14;;;;;;;0.45;0.30;;;;;;;7.17;100.00;98604.88;7144995;40;20337;31
2023/12/21 03:52:35;;;;;;;0.20;0.20;;;;;;;7.22;100.00;98585.63;7175596;40;20376;31
2023/12/21 03:57:56;;;;;;;0.33;0.33;;;;;;;7.23;100.00;98574.75;7227124;40;20311;31
2023/12/21 04:03:30;;;;;;;0.40;0.40;;;;;;;7.24;100.00;98565.69;7232939;40;20299;31
2023/12/21 04:08:54;;;;;;;0.30;0.30;;;;;;;7.27;100.00;98531.53;7249297;40;20257;31
2023/12/21 04:14:12;;;;;;;0.30;0.30;;;;;;;7.30;100.00;98542.78;7218181;40;20402;31
2023/12/21 04:19:45;;;;;;;0.30;0.30;;;;;;;7.33;100.00;98555.03;7202907;40;20246;31
2023/12/21 04:25:22;;;;;;;0.30;0.30;;;;;;;7.35;100.00;98540.44;7234635;40;20278;31
2023/12/21 04:30:53;;;;;;;0.57;0.57;;;;;;;7.33;100.00;98533.59;7049579;40;20227;31
2023/12/21 04:36:30;;;;;;;0.30;0.30;;;;;;;7.34;100.00;98529.87;7184359;40;20251;31
2023/12/21 04:42:06;;;;;;;0.40;0.40;;;;;;;7.37;100.00;98541.09;7120429;40;20302;31
2023/12/21 04:47:26;;;;;;;0.40;0.40;;;;;;;7.39;100.00;98524.88;7117656;40;20371;31
2023/12/21 04:53:02;;;;;;;0.40;0.40;;;;;;;7.38;100.00;98491.84;7149597;40;21491;31
2023/12/21 04:58:24;;;;;;;0.40;0.40;;;;;;;7.40;100.00;98486.34;7200433;40;20252;31
2023/12/21 05:03:59;;;;;;;0.30;0.30;;;;;;;7.42;100.00;98495.88;7219905;40;20241;31
2023/12/21 05:09:33;;;;;;;0.20;0.20;;;;;;;7.40;100.00;98507.78;7174175;40;20278;31
2023/12/21 05:15:08;;;;;;;0.40;0.40;;;;;;;7.40;100.00;98499.75;7137918;40;20401;31
2023/12/21 05:20:30;;;;;;;0.30;0.30;;;;;;;7.44;100.00;98493.91;7139865;40;20243;31
2023/12/21 05:26:06;;;;;;;0.50;0.50;;;;;;;7.43;100.00;98475.28;7175670;40;20274;31
2023/12/21 05:31:26;;;;;;;0.40;0.40;;;;;;;7.47;100.00;98449.81;7190156;40;20246;31
2023/12/21 05:36:46;;;;;;;0.50;0.50;;;;;;;7.47;100.00;98457.84;7175324;40;20252;31
2023/12/21 05:42:20;;;;;;;0.40;0.40;;;;;;;7.47;100.00;98431.06;7238325;40;20245;31
2023/12/21 05:47:58;;;;;;;0.37;0.37;;;;;;;7.48;100.00;98430.91;7251469;40;20241;31
2023/12/21 05:53:32;;;;;;;0.30;0.30;;;;;;;7.51;100.00;98416.31;7237958;40;20268;31
2023/12/21 05:59:06;;;;;;;0.80;0.80;;;;;;;7.51;100.00;98422.50;7197909;40;20294;31
2023/12/21 06:04:41;;;;;;;0.57;0.57;;;;;;;7.54;100.00;98391.88;7146905;40;20226;31
2023/12/21 06:10:16;;;;;;;1.07;0.50;;;;;;;7.57;100.00;98387.00;7188608;40;20247;31
2023/12/21 06:15:50;;;;;;;0.50;0.50;;;;;;;7.56;100.00;98373.75;7157184;40;20247;31
2023/12/21 06:21:10;;;;;;;1.03;0.90;;;;;;;7.59;100.00;98357.34;7125539;40;20267;31
2023/12/21 06:26:31;;;;;;;0.95;0.85;;;;;;;7.61;100.00;98356.16;7148094;40;20395;31
2023/12/21 06:37:12;;;;;;;0.67;0.67;;;;;;;7.65;100.00;98362.00;7241996;40;20648;31
2023/12/21 06:42:47;;;;;;;0.50;0.50;;;;;;;7.64;100.00;98392.50;7219452;40;20246;31
2023/12/21 06:48:23;;;;;;;0.55;0.50;;;;;;;7.68;100.00;98354.47;7200760;40;20451;31
2023/12/21 06:53:59;;;;;;;0.40;0.40;;;;;;;7.67;100.00;98344.75;7218904;40;20245;31
2023/12/21 06:59:21;;;;;;;0.40;0.40;;;;;;;7.70;100.00;98333.69;7215880;40;20443;31
2023/12/21 07:04:40;;;;;;;0.70;0.70;;;;;;;7.76;100.00;98315.25;7185212;40;20380;31
2023/12/21 07:10:18;;;;;;;0.80;0.80;;;;;;;7.73;100.00;98294.94;7208224;40;20256;31
2023/12/21 07:15:50;;;;;;;0.75;0.70;;;;;;;7.77;100.00;98290.91;7148182;40;20266;31
2023/12/21 07:21:10;;;;;;;0.65;0.60;;;;;;;7.77;100.00;98253.38;7205639;40;20372;31
2023/12/21 07:26:46;;;;;;;0.97;0.70;;;;;;;7.76;100.00;98264.28;7239568;40;20485;31
2023/12/21 07:32:06;;;;;;;0.80;0.60;;;;;;;7.78;100.00;98299.81;7187063;40;20265;31
2023/12/21 07:37:24;;;;;;;0.60;0.60;;;;;;;7.84;100.00;98301.81;7189028;40;20805;31
2023/12/21 07:43:00;;;;;;;0.50;0.50;;;;;;;7.85;100.00;98290.91;7201206;40;20242;31
2023/12/21 07:48:35;;;;;;;0.40;0.40;;;;;;;7.83;100.00;98266.09;7173975;40;20247;31
2023/12/21 07:54:10;;;;;;;0.20;0.20;;;;;;;7.83;100.00;98260.72;7186086;40;20242;31
2023/12/21 07:59:47;;;;;;;2.93;0.40;;;;;;;7.83;100.00;98247.31;7220578;40;20269;31
2023/12/21 08:05:23;;;;;;;0.70;0.70;;;;;;;7.86;100.00;98230.88;7185342;40;20316;31
2023/12/21 08:10:55;;;;;;;0.40;0.40;;;;;;;7.90;100.00;98245.59;7187503;40;20279;31
2023/12/21 08:16:31;;;;;;;0.25;0.25;;;;;;;7.89;100.00;98245.78;7198455;40;21449;31
2023/12/21 08:21:48;;;;;;;0.80;0.80;;;;;;;7.94;100.00;98254.16;7169333;40;20468;31
2023/12/21 08:27:08;;;;;;;0.30;0.30;;;;;;;7.93;100.00;98252.50;7210217;40;20411;31
2023/12/21 08:32:43;;;;;;;0.70;0.60;;;;;;;7.93;100.00;98237.22;7241715;40;20252;31
2023/12/21 08:38:20;;;;;;;0.70;0.70;;;;;;;7.97;100.00;98229.66;7176699;40;20270;31
2023/12/21 08:43:39;;;;;;;0.47;0.47;;;;;;;7.97;100.00;98224.31;7118972;40;20243;31
2023/12/21 08:49:15;;;;;;;0.60;0.50;;;;;;;7.95;100.00;98239.72;7189884;40;20262;31
2023/12/21 08:54:34;;;;;;;0.30;0.30;;;;;;;8.02;100.00;98214.72;7214020;40;20246;31
2023/12/21 08:59:55;;;;;;;0.60;0.60;;;;;;;8.03;100.00;98221.75;7256589;39;20237;31
2023/12/21 09:05:30;;;;;;;0.53;0.53;;;;;;;8.05;100.00;98211.69;7294309;39;20249;31
2023/12/21 09:10:51;;;;;;;0.80;0.80;;;;;;;8.05;100.00;98211.69;7259515;40;20268;31
2023/12/21 09:21:31;;;;;;;0.40;0.40;;;;;;;8.08;100.00;98180.97;7296004;39;21253;31
2023/12/21 09:31:52;;;;;;;0.40;0.40;;;;;;;8.12;100.00;98171.53;7222865;40;21436;31
2023/12/21 09:37:28;;;;;;;0.40;0.40;;;;;;;8.13;100.00;98136.50;7237535;40;20247;31
2023/12/21 09:43:03;;;;;;;0.70;0.70;;;;;;;8.15;100.00;98120.22;7250339;39;20252;31
2023/12/21 09:53:40;;;;;;;0.70;0.70;;;;;;;8.27;100.00;98120.63;7237913;40;21653;31
2023/12/21 10:04:20;;;;;;;1.00;0.90;;;;;;;8.34;100.00;98103.66;7266942;40;20739;31
2023/12/21 10:15:03;;;;;;;0.50;0.50;;;;;;;8.38;100.00;98066.56;7263035;40;20287;31
2023/12/21 10:20:35;;;;;;;0.40;0.40;;;;;;;8.37;100.00;98021.94;7254944;40;20343;31
2023/12/21 10:25:56;;;;;;;0.60;0.60;;;;;;;8.42;100.00;98012.34;7226202;40;20357;31
2023/12/21 10:31:32;;;;;;;1.00;0.90;;;;;;;8.41;100.00;97966.84;7215213;40;20400;31
2023/12/21 10:37:07;;;;;;;0.50;0.50;;;;;;;8.44;100.00;97990.66;7226319;40;20372;31
2023/12/21 10:42:42;;;;;;;0.60;0.60;;;;;;;8.45;100.00;98005.75;7249931;40;20245;31
2023/12/21 10:48:21;;;;;;;0.50;0.50;;;;;;;8.50;100.00;97995.31;7229578;40;20243;31
2023/12/21 10:53:54;;;;;;;0.73;0.73;;;;;;;8.53;100.00;97976.13;7160186;40;20250;31
2023/12/21 10:59:26;;;;;;;0.90;0.70;;;;;;;8.54;100.00;97948.25;7089747;41;21353;31
2023/12/21 11:05:04;;;;;;;0.60;0.60;;;;;;;8.56;100.00;97943.53;7119592;40;20385;31
2023/12/21 11:10:41;;;;;;;2.73;0.90;;;;;;;8.57;100.00;97921.03;7097216;40;20247;31
2023/12/21 11:16:16;;;;;;;2.15;0.50;;;;;;;8.59;100.00;97911.78;6895864;40;21050;31
2023/12/21 11:21:52;;;;;;;0.40;0.40;;;;;;;8.61;100.00;97871.28;7168815;40;20249;31
2023/12/21 11:27:23;;;;;;;0.57;0.57;;;;;;;8.64;100.00;97860.19;7199426;40;20246;31
2023/12/21 11:32:58;;;;;;;0.50;0.50;;;;;;;8.66;100.00;97836.66;7158540;40;20240;31
2023/12/21 11:38:32;;;;;;;0.30;0.30;;;;;;;8.70;100.00;97816.44;7216157;40;20379;31
2023/12/21 11:44:08;;;;;;;0.70;0.70;;;;;;;8.74;100.00;97817.75;7193300;40;20270;31
2023/12/21 11:49:44;;;;;;;2.20;1.75;;;;;;;8.74;100.00;97807.00;7232631;40;20242;31
2023/12/21 11:55:19;;;;;;;1.30;1.10;;;;;;;8.77;100.00;97771.72;7237472;40;20365;31
2023/12/21 12:00:57;;;;;;;1.45;1.15;;;;;;;8.81;100.00;97758.72;7194925;40;20380;31
2023/12/21 12:06:31;;;;;;;0.70;0.70;;;;;;;8.82;100.00;97715.53;7193806;40;20381;31
2023/12/21 12:12:07;;;;;;;1.20;0.90;;;;;;;8.87;100.00;97726.53;7195485;40;20433;31
2023/12/21 12:17:28;;;;;;;0.73;0.60;;;;;;;8.93;100.00;97709.66;7196285;40;20274;31
2023/12/21 12:23:01;;;;;;;0.40;0.40;;;;;;;8.93;100.00;97696.22;7214076;40;20257;31
2023/12/21 12:28:37;;;;;;;0.50;0.50;;;;;;;8.96;100.00;97719.19;7188327;40;20309;31
2023/12/21 12:38:59;;;;;;;0.70;0.70;;;;;;;9.07;100.00;97725.91;7211957;40;20304;31
2023/12/21 12:49:40;;;;;;;1.30;0.90;;;;;;;9.09;100.00;97705.84;7273994;39;20755;31
2023/12/21 12:55:15;;;;;;;0.60;0.60;;;;;;;9.13;100.00;97696.38;7217624;40;20246;31
2023/12/21 13:00:35;;;;;;;0.55;0.40;;;;;;;9.17;100.00;97683.41;7215303;40;20345;31
2023/12/21 13:06:12;;;;;;;0.55;0.55;;;;;;;9.23;100.00;97685.28;7220109;40;20377;31
2023/12/21 13:11:43;;;;;;;0.95;0.90;;;;;;;9.22;100.00;97681.78;7239300;39;20304;31
2023/12/21 13:22:21;;;;;;;0.90;0.90;;;;;;;9.31;100.00;97679.75;7263944;40;20836;31
2023/12/21 13:33:00;;;;;;;2.20;1.74;;;;;;;9.36;100.00;97658.50;7254987;40;20678;31
2023/12/21 13:43:38;;;;;;;1.55;0.85;;;;;;;9.44;100.00;97644.91;7237353;40;20982;31
2023/12/21 13:54:18;;;;;;;2.15;1.60;;;;;;;9.57;100.00;97633.38;7275531;39;20720;31
2023/12/21 13:59:55;;;;;;;2.60;2.30;;;;;;;9.57;100.00;97657.59;7237411;40;20258;31
2023/12/21 14:05:15;;;;;;;1.20;1.10;;;;;;;9.61;100.00;97643.53;7187563;40;20382;31
2023/12/21 14:10:35;;;;;;;1.10;1.00;;;;;;;9.67;100.00;97623.94;7137995;40;20247;31
2023/12/21 14:16:11;;;;;;;1.10;1.00;;;;;;;9.68;100.00;97609.47;7155926;40;20597;31
2023/12/21 14:21:31;;;;;;;1.67;1.20;;;;;;;9.75;100.00;97610.31;7141949;40;20352;31
2023/12/21 14:26:52;;;;;;;0.80;0.80;;;;;;;9.77;100.00;97619.03;7184481;40;20320;31
2023/12/21 14:32:30;;;;;;;1.20;1.10;;;;;;;9.79;100.00;97605.34;7198197;40;20376;31
2023/12/21 14:38:05;;;;;;;1.05;0.90;;;;;;;9.80;100.00;97580.94;7170367;40;20282;31
2023/12/21 14:43:23;;;;;;;0.73;0.73;;;;;;;9.85;100.00;97575.78;7175228;40;20711;31
2023/12/21 14:48:59;;;;;;;0.80;0.80;;;;;;;9.83;100.00;97602.06;7163035;40;20386;31
2023/12/21 14:59:20;;;;;;;0.50;0.50;;;;;;;9.86;100.00;97595.47;7204965;40;21482;31
2023/12/21 15:04:56;;;;;;;5.32;2.37;;;;;;;9.86;100.00;97593.59;7233398;40;20241;31
2023/12/21 15:10:32;;;;;;;1.55;1.30;;;;;;;9.85;100.00;97570.41;7275223;39;20324;31
2023/12/21 15:15:50;;;;;;;0.90;0.90;;;;;;;9.93;100.00;97578.31;7259000;40;20245;31
2023/12/21 15:21:28;;;;;;;0.80;0.80;;;;;;;9.93;100.00;97574.78;7287006;39;20248;31
2023/12/21 15:26:48;;;;;;;1.80;0.87;;;;;;;9.95;100.00;97603.16;7187069;40;20258;31
2023/12/21 15:32:24;;;;;;;1.10;1.00;;;;;;;9.92;100.00;97582.00;7190038;40;20246;31
2023/12/21 15:38:00;;;;;;;0.65;0.65;;;;;;;9.91;100.00;97572.31;7169202;40;20278;31
2023/12/21 15:43:35;;;;;;;0.57;0.57;;;;;;;9.99;100.00;97586.59;7195779;40;20248;31
2023/12/21 15:49:07;;;;;;;0.50;0.50;;;;;;;10.00;100.00;97607.94;7184840;40;20297;31
2023/12/21 15:54:40;;;;;;;0.80;0.80;;;;;;;10.06;100.00;97585.56;7168856;40;20404;31
2023/12/21 16:00:17;;;;;;;2.80;1.00;;;;;;;10.11;100.00;97584.97;7236827;40;20264;31
2023/12/21 16:05:36;;;;;;;1.37;1.10;;;;;;;10.13;100.00;97578.38;7140365;40;20239;31
2023/12/21 16:11:14;;;;;;;2.15;0.80;;;;;;;10.10;100.00;97583.31;7218485;40;20238;31
2023/12/21 16:16:48;;;;;;;1.27;0.87;;;;;;;10.12;100.00;97600.94;7185563;40;20247;31
2023/12/21 16:22:23;;;;;;;1.80;1.00;;;;;;;10.08;100.00;97601.53;7161867;40;20262;31
2023/12/21 16:28:00;;;;;;;1.60;1.13;;;;;;;10.06;100.00;97635.88;7196661;40;20347;31
2023/12/21 16:33:21;;;;;;;1.17;1.00;;;;;;;10.08;100.00;97644.59;7186663;40;20246;31
2023/12/21 16:38:41;;;;;;;1.13;0.97;;;;;;;10.12;100.00;97619.78;7186202;40;20827;31
2023/12/21 16:44:17;;;;;;;1.70;1.00;;;;;;;10.12;100.00;97624.31;7191266;40;20259;31
2023/12/21 16:49:38;;;;;;;1.60;1.30;;;;;;;10.15;100.00;97602.38;7143112;40;20231;31
2023/12/21 16:54:59;;;;;;;2.80;1.70;;;;;;;10.16;100.00;97614.84;7185761;40;20241;31
2023/12/21 17:00:35;;;;;;;1.87;1.40;;;;;;;10.10;100.00;97588.69;7204823;40;20266;31
2023/12/21 17:05:55;;;;;;;2.73;1.93;;;;;;;10.14;100.00;97600.72;7206512;40;20262;31
2023/12/21 17:11:30;;;;;;;2.30;1.30;;;;;;;10.11;100.00;97596.56;7277081;40;20260;31
2023/12/21 17:17:03;;;;;;;5.03;2.60;;;;;;;10.06;100.00;97577.50;7276257;40;20273;31
2023/12/21 17:22:24;;;;;;;5.85;3.80;;;;;;;10.08;100.00;97590.78;7267746;39;20279;31
2023/12/21 17:33:04;;;;;;;3.30;1.70;;;;;;;10.06;100.00;97582.06;7247018;40;20414;31
2023/12/21 17:43:44;;;;;;;1.70;1.40;;;;;;;10.07;100.00;97589.09;7221365;40;21371;31
2023/12/21 17:49:16;;;;;;;2.20;1.30;;;;;;;10.07;100.00;97578.34;7157830;40;20278;31
2023/12/21 17:54:52;;;;;;;4.33;1.40;;;;;;;10.09;100.00;97563.63;7222430;40;20258;31
2023/12/21 18:05:33;;;;;;;2.80;1.30;;;;;;;10.10;100.00;97594.06;7214784;40;20268;31
2023/12/21 18:16:12;;;;;;;2.40;1.20;;;;;;;10.16;100.00;97633.69;7269359;40;21239;31
2023/12/21 18:21:49;;;;;;;5.00;1.60;;;;;;;10.09;100.00;97652.47;7255657;40;20365;31
2023/12/21 18:27:22;;;;;;;5.00;1.90;;;;;;;9.96;100.00;97673.94;6984812;40;21184;31
2023/12/21 18:32:44;;;;;;;4.20;1.60;;;;;;;9.71;100.00;97692.44;7217680;40;20261;31
2023/12/21 18:38:21;;;;;;;2.70;1.50;;;;;;;9.62;100.00;97682.88;7218334;40;20396;31
2023/12/21 18:43:42;;;;;;;2.97;1.10;;;;;;;9.64;100.00;97686.22;7222812;40;21375;31
2023/12/21 18:49:17;;;;;;;1.57;1.03;;;;;;;9.65;100.00;97671.75;7258514;40;20256;31
2023/12/21 18:54:54;;;;;;;2.40;1.50;;;;;;;9.68;99.43;97673.19;7213975;40;20278;31
2023/12/21 19:00:31;;;;;;;9.47;1.83;;;;;;;9.70;97.78;97661.19;7177752;40;20231;31
2023/12/21 19:06:06;;;;;;;3.73;1.27;;;;;;;9.67;96.92;97660.75;7197577;40;20269;31
2023/12/21 19:11:43;;;;;;;3.85;1.45;;;;;;;9.64;97.11;97669.25;7105715;40;20244;31
2023/12/21 19:17:03;;;;;;;1.83;1.30;;;;;;;9.66;96.90;97662.63;7136326;40;20243;31
2023/12/21 19:22:39;;;;;;;2.70;1.55;;;;;;;9.59;97.03;97683.28;7218480;40;20262;31
2023/12/21 19:28:12;;;;;;;2.20;1.13;;;;;;;9.60;96.88;97689.50;7175691;40;20328;31
2023/12/21 19:33:47;;;;;;;3.60;1.40;;;;;;;9.61;96.70;97694.66;7221825;40;20257;31
2023/12/21 19:39:08;;;;;;;3.45;2.40;;;;;;;9.65;96.37;97685.19;7189845;40;20240;31
2023/12/21 19:44:45;;;;;;;3.63;1.57;;;;;;;9.58;96.00;97695.06;7217203;40;20344;31
2023/12/21 19:50:21;;;;;;;2.25;1.40;;;;;;;9.59;95.84;97699.41;7167003;40;20253;31
2023/12/21 19:55:56;;;;;;;2.95;1.40;;;;;;;9.61;95.42;97718.88;7137548;40;20296;31
2023/12/21 20:01:33;;;;;;;3.63;1.47;;;;;;;9.59;95.93;97715.56;7170203;40;20539;31
2023/12/21 20:06:53;;;;;;;4.70;1.80;;;;;;;9.65;94.84;97697.81;7199252;40;20359;31
2023/12/21 20:12:28;;;;;;;2.90;1.60;;;;;;;9.61;94.82;97689.28;7198576;40;20353;31
2023/12/21 20:18:04;;;;;;;4.27;1.70;;;;;;;9.61;94.58;97705.41;7145278;40;20355;31
2023/12/21 20:23:39;;;;;;;3.40;1.45;;;;;;;9.62;94.93;97720.53;7139548;40;20245;31
2023/12/21 20:29:14;;;;;;;6.63;2.00;;;;;;;9.61;94.79;97726.94;7132541;40;20622;31
2023/12/21 20:34:47;;;;;;;5.40;2.20;;;;;;;9.62;94.16;97742.06;7147896;40;20342;31
2023/12/21 20:40:09;;;;;;;3.70;1.60;;;;;;;9.67;93.73;97763.00;7172224;40;20339;31
2023/12/21 20:45:44;;;;;;;4.30;1.70;;;;;;;9.64;93.48;97769.59;7245177;40;20230;31
2023/12/21 20:51:21;;;;;;;2.60;1.60;;;;;;;9.62;92.74;97774.34;7252973;40;20258;31
2023/12/21 20:56:41;;;;;;;4.40;1.70;;;;;;;9.63;93.19;97781.38;7228869;40;20400;31
2023/12/21 21:02:01;;;;;;;4.73;1.63;;;;;;;9.61;93.67;97785.31;7197589;40;21133;31
2023/12/21 21:07:37;;;;;;;4.20;1.80;;;;;;;9.57;93.10;97775.94;7218176;40;20338;31
2023/12/21 21:18:02;;;;;;;3.93;1.53;;;;;;;9.57;92.36;97782.16;7221301;40;20737;31
2023/12/21 21:28:40;;;;;;;3.67;1.63;;;;;;;9.54;90.93;97797.84;7266666;40;20748;31
2023/12/21 21:34:00;;;;;;;4.07;1.50;;;;;;;9.54;91.81;97836.34;7310991;39;20241;31
2023/12/21 21:39:21;;;;;;;2.53;1.55;;;;;;;9.52;92.18;97848.34;7338575;39;20257;31
2023/12/21 21:44:57;;;;;;;4.10;1.70;;;;;;;9.46;92.25;97828.41;7299977;39;20245;31
2023/12/21 21:50:32;;;;;;;5.70;1.40;;;;;;;9.48;92.80;97847.88;7245112;40;20259;31
2023/12/21 21:55:52;;;;;;;3.70;1.60;;;;;;;9.50;92.88;97840.44;7217715;40;20409;31
2023/12/21 22:06:33;;;;;;;4.80;1.70;;;;;;;9.45;93.97;97853.63;7260163;40;20331;31
2023/12/21 22:12:08;;;;;;;4.33;1.63;;;;;;;9.42;94.75;97870.16;7241465;40;20273;31
2023/12/21 22:17:44;;;;;;;5.10;1.73;;;;;;;9.41;95.77;97868.50;7184145;40;20243;31
2023/12/21 22:23:18;;;;;;;5.37;2.07;;;;;;;9.33;95.92;97888.28;7178130;40;20244;31
2023/12/21 22:28:38;;;;;;;3.70;1.70;;;;;;;9.36;95.73;97892.44;7168074;40;20243;31
2023/12/21 22:33:59;;;;;;;5.00;1.90;;;;;;;9.30;93.73;97872.50;7238710;40;20394;31
2023/12/21 22:39:36;;;;;;;5.75;1.60;;;;;;;9.31;93.02;97902.94;7231942;40;20450;31
2023/12/21 22:44:53;;;;;;;4.50;1.40;;;;;;;9.31;92.77;97893.00;7266787;40;20376;31
2023/12/21 22:50:14;;;;;;;3.00;1.40;;;;;;;9.26;91.94;97892.75;7268613;40;20260;31
2023/12/21 22:55:50;;;;;;;4.60;1.50;;;;;;;9.21;91.29;97905.94;7269773;40;20232;31
2023/12/21 23:01:25;;;;;;;1.80;1.20;;;;;;;9.17;90.58;97901.94;7242829;40;20262;31
2023/12/21 23:06:47;;;;;;;4.67;1.60;;;;;;;9.17;90.71;97909.19;7236305;40;20245;31
2023/12/21 23:12:20;;;;;;;5.10;1.80;;;;;;;9.16;91.92;97899.47;7214151;40;20355;31
2023/12/21 23:22:59;;;;;;;7.70;2.10;;;;;;;9.22;93.71;97925.56;7169192;40;21453;31
2023/12/21 23:28:35;;;;;;;5.30;1.80;;;;;;;9.10;94.66;97914.47;7183206;40;20254;31
2023/12/21 23:34:10;;;;;;;5.27;1.67;;;;;;;9.08;93.76;97931.84;7190902;40;20460;31
2023/12/21 23:39:45;;;;;;;4.90;1.43;;;;;;;8.99;92.66;97931.91;7179067;40;20310;31
2023/12/21 23:45:22;;;;;;;4.27;2.23;;;;;;;8.89;92.74;97934.09;7133113;40;20258;31
2023/12/21 23:50:43;;;;;;;4.63;1.80;;;;;;;8.97;93.00;97938.50;7149407;40;20257;31
2023/12/21 23:56:01;;;;;;;5.60;1.80;;;;;;;8.90;93.60;97935.75;7207482;40;20310;31
